This is the latest recevied weather packets stored in our database for station/object N4OGP-WX. If no packets are shown the sender has not sent any weather packets the latest 1 day(s).
| Time | Temp. | Humidity | Pressure | Rain* | Wind** | Luminosity | Snow |
|---|---|---|---|---|---|---|---|
| 1778052357 | 22.22° C | 88% | 1010.4 hPa | 0 mm | - | - | - |
| 1778052297 | 22.22° C | 88% | 1010.4 hPa | 0 mm | - | - | - |
| 1778052237 | 23.89° C | 42% | 1020.4 hPa | 0 mm | - | - | - |
| 1778052177 | 22.22° C | 88% | 1010.4 hPa | 0 mm | - | - | - |
| 1778052117 | 22.22° C | 87% | 1010.4 hPa | 0 mm | - | - | - |
| 1778052027 | 23.89° C | 42% | 1020.4 hPa | 0 mm | - | - | - |
| 1778051937 | 22.22° C | 87% | 1010.4 hPa | 0 mm | - | - | - |
| 1778051847 | 22.22° C | 87% | 1010.4 hPa | 0 mm | - | - | - |
| 1778051757 | 22.22° C | 87% | 1010.4 hPa | 0 mm | - | - | - |
| 1778051697 | 23.89° C | 42% | 1020.4 hPa | 0 mm | - | - | - |
| 1778051637 | 23.89° C | 42% | 1020.4 hPa | 0 mm | - | - | - |
| 1778051547 | 23.89° C | 42% | 1020.4 hPa | 0 mm | - | - | - |
| 1778051487 | 22.22° C | 87% | 1010.4 hPa | 0 mm | - | - | - |
| 1778051427 | 21.67° C | 87% | 1010.4 hPa | 0 mm | - | - | - |
| 1778051367 | 23.89° C | 42% | 1020.4 hPa | 0 mm | - | - | - |
| 1778051307 | 23.89° C | 42% | 1020.4 hPa | 0 mm | - | - | - |
| 1778051247 | 21.67° C | 87% | 1010.5 hPa | 0 mm | - | - | - |
| 1778051187 | 21.67° C | 87% | 1010.5 hPa | 0 mm | - | - | - |
| 1778051097 | 23.89° C | 42% | 1020.4 hPa | 0 mm | - | - | - |
| 1778051037 | 23.89° C | 42% | 1020.4 hPa | 0 mm | - | - | - |
| 1778050977 | 23.89° C | 42% | 1020.4 hPa | 0 mm | - | - | - |
| 1778050887 | 23.89° C | 42% | 1020.4 hPa | 0 mm | - | - | - |
| 1778050797 | 21.67° C | 87% | 1010.5 hPa | 0 mm | - | - | - |
| 1778050707 | 21.67° C | 87% | 1010.5 hPa | 0 mm | - | - | - |
| 1778050647 | 23.89° C | 42% | 1020.4 hPa | 0 mm | - | - | - |
* Rain latest hour (hover to see other rain measurements)
** Current wind speed in m/s (hover to see current wind gust speed)